Time;durP1;ratioP1;P1;durP2;ratioP2;P2;SDS_P1;SDS_P2;PMS_P1;PMS_P2;Temp;Humidity;BMP_temperature;BMP_pressure;BME280_temperature;BME280_humidity;BME280_pressure;Samples;Min_cycle;Max_cycle;Signal;HPM_P1;HPM_P2
2023/11/29 00:02:04;;;;;;;31.73;10.77;;;;;;;;;;5060087;28;20648;-69
2023/11/29 00:04:30;;;;;;;36.22;11.52;;;;;;;;;;5061294;28;20447;-69
2023/11/29 00:06:57;;;;;;;21.92;12.02;;;;;;;;;;5065435;28;20489;-68
2023/11/29 00:09:23;;;;;;;32.85;11.57;;;;;;;;;;5063733;28;20366;-69
2023/11/29 00:11:49;;;;;;;25.85;9.32;;;;;;;;;;5063857;28;20556;-69
2023/11/29 00:14:15;;;;;;;21.92;8.90;;;;;;;;;;5062578;28;20070;-69
2023/11/29 00:16:41;;;;;;;24.65;9.70;;;;;;;;;;5067175;28;20021;-69
2023/11/29 00:19:08;;;;;;;19.63;10.02;;;;;;;;;;5060002;28;20119;-68
2023/11/29 00:21:40;;;;;;;23.30;8.27;;;;;;;;;;5064670;28;20221;-68
2023/11/29 00:24:06;;;;;;;23.40;11.25;;;;;;;;;;5067116;28;20062;-68
2023/11/29 00:26:32;;;;;;;29.05;9.85;;;;;;;;;;5063257;28;20028;-69
2023/11/29 00:28:58;;;;;;;37.05;16.60;;;;;;;;;;5062902;28;20498;-69
2023/11/29 00:31:24;;;;;;;25.65;9.95;;;;;;;;;;5057755;28;20032;-69
2023/11/29 00:33:51;;;;;;;20.90;8.27;;;;;;;;;;5060089;28;20091;-69
2023/11/29 00:36:17;;;;;;;24.52;12.70;;;;;;;;;;5059835;28;20024;-69
2023/11/29 00:38:43;;;;;;;18.35;8.18;;;;;;;;;;5059889;28;20036;-69
2023/11/29 00:41:09;;;;;;;24.15;9.77;;;;;;;;;;5063476;28;20295;-70
2023/11/29 00:43:37;;;;;;;31.00;10.77;;;;;;;;;;5056486;28;20727;-69
2023/11/29 00:46:03;;;;;;;39.08;13.38;;;;;;;;;;5061053;28;20502;-68
2023/11/29 00:48:30;;;;;;;23.00;8.50;;;;;;;;;;5061466;28;20388;-69
2023/11/29 00:50:57;;;;;;;23.42;7.90;;;;;;;;;;5062594;28;20064;-69
2023/11/29 00:53:23;;;;;;;27.48;8.98;;;;;;;;;;5060092;28;20055;-69
2023/11/29 00:55:49;;;;;;;19.10;8.73;;;;;;;;;;5060535;28;20036;-69
2023/11/29 00:58:17;;;;;;;18.08;8.15;;;;;;;;;;5061584;28;20514;-69
2023/11/29 01:00:43;;;;;;;23.40;7.80;;;;;;;;;;5062992;28;20031;-68
2023/11/29 01:03:09;;;;;;;26.63;6.88;;;;;;;;;;5061123;28;20562;-69
2023/11/29 01:05:35;;;;;;;21.60;6.65;;;;;;;;;;5059897;28;20111;-69
2023/11/29 01:08:02;;;;;;;15.05;6.57;;;;;;;;;;5060830;28;20550;-69
2023/11/29 01:10:28;;;;;;;18.95;7.40;;;;;;;;;;5066236;28;20386;-69
2023/11/29 01:12:54;;;;;;;18.77;7.82;;;;;;;;;;5055655;28;20028;-69
2023/11/29 01:15:20;;;;;;;16.13;7.95;;;;;;;;;;5061748;28;20025;-69
2023/11/29 01:17:46;;;;;;;11.32;7.00;;;;;;;;;;5053676;28;20375;-68
2023/11/29 01:20:12;;;;;;;12.63;6.50;;;;;;;;;;5051835;28;20215;-69
2023/11/29 01:22:39;;;;;;;16.65;7.75;;;;;;;;;;5062005;28;20606;-69
2023/11/29 01:25:05;;;;;;;26.45;8.60;;;;;;;;;;5059481;28;20029;-69
2023/11/29 01:27:31;;;;;;;21.42;9.02;;;;;;;;;;5062503;28;20024;-69
2023/11/29 01:29:58;;;;;;;18.77;7.22;;;;;;;;;;5056746;28;20056;-69
2023/11/29 01:32:24;;;;;;;23.05;7.30;;;;;;;;;;5062341;28;20057;-69
2023/11/29 01:34:51;;;;;;;17.00;7.57;;;;;;;;;;5061771;28;20056;-70
2023/11/29 01:37:17;;;;;;;23.83;6.97;;;;;;;;;;5066080;28;20018;-69
2023/11/29 01:39:44;;;;;;;26.20;8.20;;;;;;;;;;5062535;28;20035;-69
2023/11/29 01:42:11;;;;;;;18.92;7.93;;;;;;;;;;5064676;28;20028;-68
2023/11/29 01:44:37;;;;;;;17.83;7.57;;;;;;;;;;5058614;28;20952;-68
2023/11/29 01:47:11;;;;;;;29.95;10.98;;;;;;;;;;5059121;28;20033;-68
2023/11/29 01:49:38;;;;;;;22.35;10.02;;;;;;;;;;5065642;28;20131;-68
2023/11/29 01:52:05;;;;;;;17.40;9.18;;;;;;;;;;5059373;28;20336;-69
2023/11/29 01:54:31;;;;;;;20.75;7.28;;;;;;;;;;5056128;28;20020;-68
2023/11/29 01:56:57;;;;;;;31.50;9.80;;;;;;;;;;5060436;28;20536;-68
2023/11/29 01:59:23;;;;;;;15.13;7.78;;;;;;;;;;5074206;28;20046;-68
2023/11/29 02:01:49;;;;;;;22.75;8.57;;;;;;;;;;5073722;28;20028;-68
2023/11/29 02:04:16;;;;;;;29.58;8.52;;;;;;;;;;5054537;28;20034;-69
2023/11/29 02:06:43;;;;;;;24.45;8.50;;;;;;;;;;5057305;28;20098;-68
2023/11/29 02:09:09;;;;;;;36.00;8.30;;;;;;;;;;5052693;28;20086;-68
2023/11/29 02:11:39;;;;;;;22.15;9.45;;;;;;;;;;5051292;28;20411;-68
2023/11/29 02:14:05;;;;;;;32.17;9.43;;;;;;;;;;5067479;28;20039;-68
2023/11/29 02:16:32;;;;;;;42.92;9.80;;;;;;;;;;5060144;28;20433;-69
2023/11/29 02:18:58;;;;;;;41.60;8.85;;;;;;;;;;5058762;28;20385;-69
2023/11/29 02:21:24;;;;;;;26.95;8.98;;;;;;;;;;5061331;28;20032;-68
2023/11/29 02:24:00;;;;;;;27.23;8.65;;;;;;;;;;5051175;28;20049;-68
2023/11/29 02:26:27;;;;;;;16.02;7.22;;;;;;;;;;5052109;28;20123;-68
2023/11/29 02:28:53;;;;;;;25.63;8.45;;;;;;;;;;5065177;28;20021;-68
2023/11/29 02:31:19;;;;;;;33.42;9.55;;;;;;;;;;5061370;28;20085;-68
2023/11/29 02:33:45;;;;;;;38.53;9.02;;;;;;;;;;5057795;28;20121;-69
2023/11/29 02:36:11;;;;;;;24.50;8.68;;;;;;;;;;5059304;28;20533;-68
2023/11/29 02:38:37;;;;;;;25.63;8.85;;;;;;;;;;5062336;28;21500;-68
2023/11/29 02:41:03;;;;;;;20.05;7.85;;;;;;;;;;5058241;28;20028;-68
2023/11/29 02:43:30;;;;;;;28.42;9.13;;;;;;;;;;5060542;28;20324;-69
2023/11/29 02:45:56;;;;;;;32.58;9.07;;;;;;;;;;5053720;28;20092;-69
2023/11/29 02:48:22;;;;;;;24.80;7.90;;;;;;;;;;5062034;28;20041;-69
2023/11/29 02:50:49;;;;;;;25.38;7.97;;;;;;;;;;5057772;28;20038;-68
2023/11/29 02:53:15;;;;;;;18.52;7.93;;;;;;;;;;5065858;28;20021;-66
2023/11/29 02:55:41;;;;;;;41.40;8.60;;;;;;;;;;5050165;28;20023;-69
2023/11/29 02:58:08;;;;;;;27.08;8.82;;;;;;;;;;5060594;28;20085;-68
2023/11/29 03:00:34;;;;;;;26.75;8.05;;;;;;;;;;5057198;28;20032;-68
2023/11/29 03:03:00;;;;;;;26.92;8.90;;;;;;;;;;5065498;28;20471;-69
2023/11/29 03:05:27;;;;;;;31.83;10.15;;;;;;;;;;5064063;28;20032;-69
2023/11/29 03:07:53;;;;;;;28.83;9.05;;;;;;;;;;5065696;28;20439;-68
2023/11/29 03:10:19;;;;;;;28.55;7.30;;;;;;;;;;5065253;28;20495;-68
2023/11/29 03:12:45;;;;;;;15.77;8.70;;;;;;;;;;5060609;28;20173;-68
2023/11/29 03:15:14;;;;;;;15.05;7.93;;;;;;;;;;5063035;28;20035;-68
2023/11/29 03:17:40;;;;;;;28.25;7.72;;;;;;;;;;5063606;28;20032;-68
2023/11/29 03:20:09;;;;;;;28.52;8.57;;;;;;;;;;5059805;28;20037;-68
2023/11/29 03:22:36;;;;;;;35.28;8.65;;;;;;;;;;5067087;28;20102;-70
2023/11/29 03:25:03;;;;;;;30.73;7.53;;;;;;;;;;5066017;28;20041;-68
2023/11/29 03:27:29;;;;;;;28.73;7.45;;;;;;;;;;5067884;28;20752;-68
2023/11/29 03:29:56;;;;;;;41.88;8.77;;;;;;;;;;5068844;28;20031;-68
2023/11/29 03:32:22;;;;;;;42.47;9.90;;;;;;;;;;5064220;28;20475;-68
2023/11/29 03:34:48;;;;;;;16.05;7.43;;;;;;;;;;5065193;28;20031;-68
2023/11/29 03:37:14;;;;;;;32.75;9.48;;;;;;;;;;5067043;28;20481;-68
2023/11/29 03:39:40;;;;;;;24.33;7.70;;;;;;;;;;5062968;28;20047;-68
2023/11/29 03:42:06;;;;;;;30.80;8.40;;;;;;;;;;5056820;28;20484;-67
2023/11/29 03:44:34;;;;;;;16.65;7.80;;;;;;;;;;5066175;28;20040;-68
2023/11/29 03:47:01;;;;;;;16.98;8.20;;;;;;;;;;5063093;28;20033;-68
2023/11/29 03:49:27;;;;;;;28.10;8.88;;;;;;;;;;5058551;28;20477;-68
2023/11/29 03:51:53;;;;;;;29.95;7.70;;;;;;;;;;5061318;28;20035;-68
2023/11/29 03:54:19;;;;;;;18.05;8.00;;;;;;;;;;5069844;28;20064;-68
2023/11/29 03:56:45;;;;;;;39.47;8.73;;;;;;;;;;5067039;28;20024;-69
2023/11/29 03:59:11;;;;;;;18.15;6.63;;;;;;;;;;5064560;28;20668;-68
2023/11/29 04:01:38;;;;;;;14.43;7.32;;;;;;;;;;5056848;28;20123;-68
2023/11/29 04:04:04;;;;;;;12.57;6.95;;;;;;;;;;5065405;28;20062;-68
2023/11/29 04:06:30;;;;;;;42.38;7.70;;;;;;;;;;5060954;28;20412;-68
2023/11/29 04:08:56;;;;;;;18.63;7.32;;;;;;;;;;5061390;28;20032;-68
2023/11/29 04:11:23;;;;;;;15.10;7.28;;;;;;;;;;5058943;28;20036;-68
2023/11/29 04:13:49;;;;;;;18.58;6.32;;;;;;;;;;5060534;28;20112;-68
2023/11/29 04:16:25;;;;;;;21.35;7.75;;;;;;;;;;5063273;28;20468;-68
2023/11/29 04:18:52;;;;;;;17.52;8.00;;;;;;;;;;5061141;28;20065;-68
2023/11/29 04:21:25;;;;;;;27.85;7.88;;;;;;;;;;5065641;28;20028;-68
2023/11/29 04:23:52;;;;;;;38.47;7.95;;;;;;;;;;5059764;28;20031;-68
2023/11/29 04:26:29;;;;;;;16.85;7.45;;;;;;;;;;5076998;28;20040;-68
2023/11/29 04:28:55;;;;;;;17.23;6.72;;;;;;;;;;5056479;28;20115;-68
2023/11/29 04:31:21;;;;;;;24.45;7.50;;;;;;;;;;5061293;28;20032;-68
2023/11/29 04:33:47;;;;;;;21.10;7.40;;;;;;;;;;5055624;28;20033;-69
2023/11/29 04:36:14;;;;;;;25.83;7.13;;;;;;;;;;5058647;28;20340;-68
2023/11/29 04:38:41;;;;;;;30.75;7.85;;;;;;;;;;5066651;28;20585;-68
2023/11/29 04:41:07;;;;;;;15.30;6.47;;;;;;;;;;5066144;28;20647;-69
2023/11/29 04:43:33;;;;;;;32.97;8.35;;;;;;;;;;5057106;28;20097;-69
2023/11/29 04:45:59;;;;;;;27.55;6.50;;;;;;;;;;5063357;28;20723;-68
2023/11/29 04:48:26;;;;;;;26.08;7.57;;;;;;;;;;5064866;28;20063;-68
2023/11/29 04:50:52;;;;;;;16.50;6.07;;;;;;;;;;5075959;28;20059;-68
2023/11/29 04:53:18;;;;;;;22.48;6.70;;;;;;;;;;5060145;28;21312;-68
2023/11/29 04:55:44;;;;;;;23.90;6.90;;;;;;;;;;5064274;28;20085;-68
2023/11/29 04:58:10;;;;;;;10.68;6.30;;;;;;;;;;5059012;28;20075;-68
2023/11/29 05:00:36;;;;;;;12.10;6.50;;;;;;;;;;5067815;28;20056;-68
2023/11/29 05:03:03;;;;;;;9.73;5.72;;;;;;;;;;5074298;28;20024;-68
2023/11/29 05:05:29;;;;;;;11.57;6.32;;;;;;;;;;5061127;28;20107;-68
2023/11/29 05:07:55;;;;;;;17.77;6.20;;;;;;;;;;5067717;28;20025;-68
2023/11/29 05:10:21;;;;;;;21.33;6.38;;;;;;;;;;5063284;28;20432;-68
2023/11/29 05:12:47;;;;;;;38.92;6.65;;;;;;;;;;5068174;28;20028;-68
2023/11/29 05:15:13;;;;;;;22.90;6.97;;;;;;;;;;5056490;28;20025;-68
2023/11/29 05:17:39;;;;;;;22.27;6.88;;;;;;;;;;5058020;28;20437;-68
2023/11/29 05:20:09;;;;;;;24.20;7.03;;;;;;;;;;5061961;28;20028;-68
2023/11/29 05:22:35;;;;;;;13.18;6.40;;;;;;;;;;5058825;28;20029;-69
2023/11/29 05:25:01;;;;;;;44.53;7.75;;;;;;;;;;5058404;28;20024;-68
2023/11/29 05:27:29;;;;;;;27.23;6.32;;;;;;;;;;5067283;28;20099;-68
2023/11/29 05:29:56;;;;;;;15.35;7.15;;;;;;;;;;5056572;28;20032;-68
2023/11/29 05:32:22;;;;;;;12.23;6.18;;;;;;;;;;5052613;28;20286;-68
2023/11/29 05:34:48;;;;;;;17.73;7.72;;;;;;;;;;5074435;28;20123;-68
2023/11/29 05:37:14;;;;;;;13.75;6.60;;;;;;;;;;5064860;28;20507;-68
2023/11/29 05:39:40;;;;;;;11.80;5.78;;;;;;;;;;5060868;28;20553;-68
2023/11/29 05:42:06;;;;;;;18.40;6.28;;;;;;;;;;5056589;28;20035;-68
2023/11/29 05:44:33;;;;;;;22.63;7.40;;;;;;;;;;5064139;28;20501;-69
2023/11/29 05:46:59;;;;;;;25.67;6.00;;;;;;;;;;5064194;28;20556;-68
2023/11/29 05:49:25;;;;;;;16.25;6.50;;;;;;;;;;5070624;28;20028;-68
2023/11/29 05:51:52;;;;;;;16.92;5.80;;;;;;;;;;5073141;28;20025;-68
2023/11/29 05:54:18;;;;;;;14.48;5.68;;;;;;;;;;5072791;28;20028;-68
2023/11/29 05:56:45;;;;;;;16.55;6.45;;;;;;;;;;5053709;28;20031;-68
2023/11/29 05:59:11;;;;;;;23.15;5.50;;;;;;;;;;5057973;28;21226;-68
2023/11/29 06:01:37;;;;;;;24.40;6.18;;;;;;;;;;5057403;28;20032;-68
2023/11/29 06:04:04;;;;;;;15.00;6.90;;;;;;;;;;5055109;28;20037;-69
2023/11/29 06:06:31;;;;;;;20.88;5.72;;;;;;;;;;5058442;28;20028;-69
2023/11/29 06:09:00;;;;;;;14.43;6.40;;;;;;;;;;5059364;28;20500;-68
2023/11/29 06:11:26;;;;;;;16.10;6.05;;;;;;;;;;5059406;28;20350;-69
2023/11/29 06:13:53;;;;;;;13.30;6.13;;;;;;;;;;5064930;28;20025;-69
2023/11/29 06:16:19;;;;;;;27.50;7.15;;;;;;;;;;5065129;28;20024;-69
2023/11/29 06:18:46;;;;;;;31.25;6.68;;;;;;;;;;5057575;28;20029;-69
2023/11/29 06:21:12;;;;;;;14.55;6.03;;;;;;;;;;5067004;28;20025;-69
2023/11/29 06:23:38;;;;;;;14.65;5.80;;;;;;;;;;5058041;28;20361;-69
2023/11/29 06:26:07;;;;;;;13.05;5.95;;;;;;;;;;5055788;28;20036;-69
2023/11/29 06:28:38;;;;;;;12.65;5.20;;;;;;;;;;5074175;28;20033;-69
2023/11/29 06:31:04;;;;;;;15.90;6.35;;;;;;;;;;5065006;28;20119;-69
2023/11/29 06:33:31;;;;;;;24.58;6.10;;;;;;;;;;5060326;28;20258;-69
2023/11/29 06:35:58;;;;;;;15.52;5.95;;;;;;;;;;5072967;28;20054;-68
2023/11/29 06:38:26;;;;;;;17.02;5.90;;;;;;;;;;5058888;28;20028;-69
2023/11/29 06:40:52;;;;;;;13.27;5.70;;;;;;;;;;5059056;28;20044;-68
2023/11/29 06:43:19;;;;;;;18.35;6.45;;;;;;;;;;5055721;28;20028;-68
2023/11/29 06:45:48;;;;;;;22.38;5.95;;;;;;;;;;5059865;28;20036;-69
2023/11/29 06:48:14;;;;;;;38.35;6.65;;;;;;;;;;5057589;28;20033;-68
2023/11/29 06:50:40;;;;;;;23.40;5.53;;;;;;;;;;5057838;28;20123;-68
2023/11/29 06:53:07;;;;;;;24.98;7.20;;;;;;;;;;5057984;28;20033;-68
2023/11/29 06:55:33;;;;;;;20.95;5.35;;;;;;;;;;5060918;28;20357;-68
2023/11/29 06:57:59;;;;;;;30.48;5.72;;;;;;;;;;5061517;28;20111;-68
2023/11/29 07:00:26;;;;;;;16.45;5.50;;;;;;;;;;5057845;28;20024;-68
2023/11/29 07:02:52;;;;;;;22.88;5.93;;;;;;;;;;5060217;28;20048;-68
2023/11/29 07:05:18;;;;;;;21.15;5.75;;;;;;;;;;5053251;28;20021;-68
2023/11/29 07:07:46;;;;;;;14.40;5.50;;;;;;;;;;5059235;28;20024;-69
2023/11/29 07:10:13;;;;;;;21.25;5.93;;;;;;;;;;5055782;28;20025;-68
2023/11/29 07:12:39;;;;;;;27.58;5.85;;;;;;;;;;5057268;28;20048;-69
2023/11/29 07:15:06;;;;;;;28.55;5.70;;;;;;;;;;5060416;28;20077;-68
2023/11/29 07:17:32;;;;;;;20.80;5.03;;;;;;;;;;5058583;28;20029;-68
2023/11/29 07:20:00;;;;;;;32.85;6.07;;;;;;;;;;5054260;28;20028;-68
2023/11/29 07:22:26;;;;;;;30.83;6.18;;;;;;;;;;5057478;28;20446;-68
2023/11/29 07:24:53;;;;;;;15.32;6.38;;;;;;;;;;5059352;28;20042;-68
2023/11/29 07:27:22;;;;;;;14.25;5.40;;;;;;;;;;5061165;28;20253;-68
2023/11/29 07:29:48;;;;;;;26.55;5.65;;;;;;;;;;5060866;28;20036;-68
2023/11/29 07:32:15;;;;;;;25.45;5.53;;;;;;;;;;5060842;28;20036;-68
2023/11/29 07:34:47;;;;;;;12.20;5.43;;;;;;;;;;5056268;28;20387;-69
2023/11/29 07:37:13;;;;;;;25.08;6.35;;;;;;;;;;5060614;28;20043;-68
2023/11/29 07:39:40;;;;;;;39.17;7.10;;;;;;;;;;5067288;28;20567;-69
2023/11/29 07:42:07;;;;;;;39.55;6.05;;;;;;;;;;5053284;28;20102;-69
2023/11/29 07:44:33;;;;;;;40.47;6.10;;;;;;;;;;5061404;28;20516;-68
2023/11/29 07:46:59;;;;;;;25.88;6.80;;;;;;;;;;5060833;28;20036;-68
2023/11/29 07:49:25;;;;;;;25.27;6.18;;;;;;;;;;5062691;28;20044;-69
2023/11/29 07:51:51;;;;;;;21.42;5.88;;;;;;;;;;5064015;28;20492;-69
2023/11/29 07:54:17;;;;;;;19.55;5.47;;;;;;;;;;5059850;28;20044;-68
2023/11/29 07:56:43;;;;;;;16.20;6.32;;;;;;;;;;5064627;28;20029;-68
2023/11/29 07:59:10;;;;;;;19.45;5.47;;;;;;;;;;5055964;28;20109;-67
2023/11/29 08:01:37;;;;;;;25.65;6.43;;;;;;;;;;5048774;28;20036;-68
2023/11/29 08:04:07;;;;;;;34.83;5.45;;;;;;;;;;5056968;28;20515;-64
2023/11/29 08:06:33;;;;;;;15.35;5.43;;;;;;;;;;5045738;28;20064;-64
2023/11/29 08:09:00;;;;;;;15.20;5.43;;;;;;;;;;5068810;28;20457;-65
2023/11/29 08:11:27;;;;;;;20.70;7.05;;;;;;;;;;5071619;28;20028;-67
2023/11/29 08:13:53;;;;;;;20.05;5.88;;;;;;;;;;5057400;28;20040;-65
2023/11/29 08:16:19;;;;;;;16.90;6.43;;;;;;;;;;5056076;28;20039;-66
2023/11/29 08:18:47;;;;;;;19.15;5.85;;;;;;;;;;5060513;28;20047;-67
2023/11/29 08:21:13;;;;;;;24.08;5.75;;;;;;;;;;5059471;28;20440;-66
2023/11/29 08:23:40;;;;;;;20.23;6.25;;;;;;;;;;5071744;28;20468;-68
2023/11/29 08:26:06;;;;;;;13.50;5.40;;;;;;;;;;5058010;28;20035;-65
2023/11/29 08:28:33;;;;;;;20.10;6.32;;;;;;;;;;5073486;28;20475;-65
2023/11/29 08:30:59;;;;;;;17.15;5.60;;;;;;;;;;5051457;28;20040;-65
2023/11/29 08:33:26;;;;;;;9.68;4.97;;;;;;;;;;5056274;28;20020;-66
2023/11/29 08:35:53;;;;;;;13.82;6.22;;;;;;;;;;5059970;28;20929;-66
2023/11/29 08:38:19;;;;;;;10.32;5.82;;;;;;;;;;5056473;28;20036;-66
2023/11/29 08:40:46;;;;;;;18.90;4.93;;;;;;;;;;5054672;28;20115;-68
2023/11/29 08:43:12;;;;;;;8.05;4.90;;;;;;;;;;5053203;28;20032;-64
2023/11/29 08:45:38;;;;;;;7.72;4.90;;;;;;;;;;5055981;28;20051;-65
2023/11/29 08:48:04;;;;;;;7.20;4.18;;;;;;;;;;5049071;28;20035;-67
2023/11/29 08:50:30;;;;;;;14.63;4.47;;;;;;;;;;5058500;28;20038;-64
2023/11/29 08:52:57;;;;;;;12.38;4.65;;;;;;;;;;5062647;28;20111;-68
2023/11/29 08:55:24;;;;;;;11.15;4.32;;;;;;;;;;5058306;28;20070;-67
2023/11/29 08:57:51;;;;;;;12.98;4.88;;;;;;;;;;5070427;28;20102;-68
2023/11/29 09:00:20;;;;;;;18.00;5.60;;;;;;;;;;5060576;28;20025;-69
2023/11/29 09:02:46;;;;;;;7.22;4.15;;;;;;;;;;5064056;28;20039;-65
2023/11/29 09:05:13;;;;;;;7.82;4.28;;;;;;;;;;5052858;28;20313;-67
2023/11/29 09:07:39;;;;;;;8.48;5.30;;;;;;;;;;5054607;28;20024;-68
2023/11/29 09:10:06;;;;;;;14.18;5.05;;;;;;;;;;5073010;28;21276;-65
2023/11/29 09:12:32;;;;;;;13.40;4.72;;;;;;;;;;5057140;28;20574;-66
2023/11/29 09:14:59;;;;;;;7.03;4.38;;;;;;;;;;5060504;28;20028;-67
2023/11/29 09:17:25;;;;;;;7.93;4.60;;;;;;;;;;5057339;28;20522;-67
2023/11/29 09:19:53;;;;;;;8.85;4.10;;;;;;;;;;5061213;28;20052;-67
2023/11/29 09:22:23;;;;;;;17.67;5.32;;;;;;;;;;5052642;28;20059;-68
2023/11/29 09:24:50;;;;;;;8.40;4.07;;;;;;;;;;5052447;28;20062;-66
2023/11/29 09:27:17;;;;;;;10.57;4.20;;;;;;;;;;5055320;28;20439;-68
2023/11/29 09:29:43;;;;;;;7.10;4.57;;;;;;;;;;5058007;28;20089;-65
2023/11/29 09:32:09;;;;;;;11.30;5.07;;;;;;;;;;5054112;28;20395;-69
2023/11/29 09:34:36;;;;;;;7.30;4.78;;;;;;;;;;5056121;28;20047;-70
2023/11/29 09:37:02;;;;;;;13.40;6.15;;;;;;;;;;5069932;28;20740;-67
2023/11/29 09:39:29;;;;;;;14.02;5.95;;;;;;;;;;5053636;28;20460;-66
2023/11/29 09:42:01;;;;;;;12.70;5.57;;;;;;;;;;5052784;28;20028;-67
2023/11/29 09:44:28;;;;;;;16.30;6.28;;;;;;;;;;5049481;28;20048;-70
2023/11/29 09:46:55;;;;;;;10.18;4.85;;;;;;;;;;5058025;28;20024;-69
2023/11/29 09:49:23;;;;;;;9.15;5.00;;;;;;;;;;5054080;28;20458;-69
2023/11/29 09:51:49;;;;;;;7.55;4.05;;;;;;;;;;5070623;28;20133;-65
2023/11/29 09:54:16;;;;;;;6.72;4.55;;;;;;;;;;5058824;28;20021;-67
2023/11/29 09:56:42;;;;;;;10.00;5.15;;;;;;;;;;5053312;28;20028;-68
2023/11/29 09:59:09;;;;;;;15.13;5.63;;;;;;;;;;5051850;28;20094;-67
2023/11/29 10:01:35;;;;;;;7.05;4.15;;;;;;;;;;5044300;28;20024;-67
2023/11/29 10:04:05;;;;;;;8.18;5.22;;;;;;;;;;5048804;28;20098;-70
2023/11/29 10:06:31;;;;;;;11.95;5.45;;;;;;;;;;5051567;28;20091;-69
2023/11/29 10:08:58;;;;;;;7.40;5.32;;;;;;;;;;5052187;28;20056;-68
2023/11/29 10:11:25;;;;;;;8.77;4.95;;;;;;;;;;5058970;28;20038;-68
2023/11/29 10:13:52;;;;;;;6.10;4.20;;;;;;;;;;5054761;28;20116;-68
2023/11/29 10:16:20;;;;;;;8.57;4.65;;;;;;;;;;5068206;28;20033;-69
2023/11/29 10:18:47;;;;;;;9.02;4.03;;;;;;;;;;5048642;28;20035;-67
2023/11/29 10:21:14;;;;;;;8.63;4.85;;;;;;;;;;5065208;28;20054;-70
2023/11/29 10:23:44;;;;;;;7.35;4.18;;;;;;;;;;5049266;28;20202;-69
2023/11/29 10:26:11;;;;;;;14.40;4.95;;;;;;;;;;5052002;28;20029;-70
2023/11/29 10:28:37;;;;;;;26.17;8.68;;;;;;;;;;5047980;28;20410;-69
2023/11/29 10:31:04;;;;;;;21.42;6.72;;;;;;;;;;5051210;28;20400;-68
2023/11/29 10:33:34;;;;;;;12.52;5.80;;;;;;;;;;5059206;28;20102;-64
2023/11/29 10:36:02;;;;;;;16.02;6.28;;;;;;;;;;5057628;28;20024;-67
2023/11/29 10:38:34;;;;;;;4.65;4.13;;;;;;;;;;5065169;28;20032;-69
2023/11/29 10:41:01;;;;;;;5.20;3.30;;;;;;;;;;5057755;28;20459;-69
2023/11/29 10:43:30;;;;;;;6.40;3.92;;;;;;;;;;5068957;28;20036;-68
2023/11/29 10:46:08;;;;;;;4.57;3.97;;;;;;;;;;5059297;28;20032;-68
2023/11/29 10:48:35;;;;;;;5.82;3.60;;;;;;;;;;5066730;28;20037;-68
2023/11/29 10:51:03;;;;;;;7.63;4.05;;;;;;;;;;5056019;28;20043;-67
2023/11/29 10:53:31;;;;;;;9.35;4.45;;;;;;;;;;5044344;28;20028;-67
2023/11/29 10:55:59;;;;;;;9.82;4.20;;;;;;;;;;5054942;28;20021;-68
2023/11/29 10:58:58;;;;;;;6.28;3.88;;;;;;;;;;5054623;28;20029;-71
2023/11/29 11:01:36;;;;;;;6.20;3.95;;;;;;;;;;5031710;28;20492;-70
2023/11/29 11:04:05;;;;;;;5.18;3.95;;;;;;;;;;5054841;28;20564;-69
2023/11/29 11:06:35;;;;;;;6.90;3.83;;;;;;;;;;5054753;28;20074;-69
2023/11/29 11:09:02;;;;;;;5.93;4.30;;;;;;;;;;5059208;28;20039;-67
2023/11/29 11:11:45;;;;;;;5.53;4.00;;;;;;;;;;5056855;28;20037;-68
2023/11/29 11:14:14;;;;;;;6.72;3.80;;;;;;;;;;5052426;28;20480;-67
2023/11/29 11:16:59;;;;;;;6.63;3.47;;;;;;;;;;5052576;28;20100;-66
2023/11/29 11:19:30;;;;;;;8.40;4.93;;;;;;;;;;5073500;28;20051;-68
2023/11/29 11:21:56;;;;;;;6.03;4.18;;;;;;;;;;5061698;28;20575;-66
2023/11/29 11:24:43;;;;;;;6.70;4.28;;;;;;;;;;5062339;28;20399;-66
2023/11/29 11:27:14;;;;;;;5.68;3.95;;;;;;;;;;5046757;28;20059;-66
2023/11/29 11:29:41;;;;;;;5.35;4.18;;;;;;;;;;5050002;28;20344;-67
2023/11/29 11:32:07;;;;;;;5.78;4.10;;;;;;;;;;5068596;28;20162;-66
2023/11/29 11:34:33;;;;;;;6.18;3.85;;;;;;;;;;5064256;28;20032;-66
2023/11/29 11:37:00;;;;;;;6.53;4.05;;;;;;;;;;5069246;28;20111;-69
2023/11/29 11:39:27;;;;;;;5.60;4.65;;;;;;;;;;5052841;28;20032;-65
2023/11/29 11:41:53;;;;;;;4.70;3.58;;;;;;;;;;5056354;28;20214;-66
2023/11/29 11:44:22;;;;;;;5.57;3.33;;;;;;;;;;5075902;28;20040;-70
2023/11/29 11:46:48;;;;;;;5.03;3.45;;;;;;;;;;5061535;28;20039;-69
2023/11/29 11:49:15;;;;;;;9.70;3.80;;;;;;;;;;5058136;28;20133;-68
2023/11/29 11:51:41;;;;;;;4.45;3.40;;;;;;;;;;5056393;28;20021;-71
2023/11/29 11:54:08;;;;;;;6.28;4.28;;;;;;;;;;5058144;28;20036;-66
2023/11/29 11:56:34;;;;;;;7.82;4.18;;;;;;;;;;5059790;28;20103;-69
2023/11/29 11:59:01;;;;;;;6.47;3.45;;;;;;;;;;5062778;28;20035;-68
2023/11/29 12:01:29;;;;;;;7.95;3.55;;;;;;;;;;5061041;28;20039;-69
2023/11/29 12:03:55;;;;;;;5.95;4.35;;;;;;;;;;5054917;28;20834;-66
2023/11/29 12:06:21;;;;;;;7.47;4.47;;;;;;;;;;5059015;28;20033;-66
2023/11/29 12:08:47;;;;;;;6.88;4.55;;;;;;;;;;5058833;28;20492;-67
2023/11/29 12:11:13;;;;;;;5.65;4.70;;;;;;;;;;5055525;28;20027;-71
2023/11/29 12:13:40;;;;;;;8.80;6.93;;;;;;;;;;5055326;28;20044;-70
2023/11/29 12:16:13;;;;;;;9.23;5.32;;;;;;;;;;5056722;28;20029;-67
2023/11/29 12:18:39;;;;;;;7.45;6.53;;;;;;;;;;5067572;28;20078;-67
2023/11/29 12:21:06;;;;;;;11.55;6.25;;;;;;;;;;5055346;28;20037;-66
2023/11/29 12:23:32;;;;;;;5.85;4.38;;;;;;;;;;5062313;28;20052;-69
2023/11/29 12:25:58;;;;;;;6.25;4.68;;;;;;;;;;5054517;28;20737;-67
2023/11/29 12:28:30;;;;;;;4.38;3.88;;;;;;;;;;5058744;28;20040;-68
2023/11/29 12:30:59;;;;;;;7.25;5.43;;;;;;;;;;5077222;28;20058;-65
2023/11/29 12:33:26;;;;;;;7.65;4.57;;;;;;;;;;5063971;28;20669;-65
2023/11/29 12:35:52;;;;;;;7.28;5.00;;;;;;;;;;5060153;28;20212;-66
2023/11/29 12:38:19;;;;;;;6.30;4.20;;;;;;;;;;5077812;28;20040;-66
2023/11/29 12:40:46;;;;;;;6.15;3.88;;;;;;;;;;5067813;28;20021;-66
2023/11/29 12:43:12;;;;;;;5.70;3.83;;;;;;;;;;5062169;28;20818;-66
2023/11/29 12:45:38;;;;;;;6.43;4.47;;;;;;;;;;5041159;28;20035;-65
2023/11/29 12:48:04;;;;;;;5.85;3.78;;;;;;;;;;5041867;28;20029;-65
2023/11/29 12:50:32;;;;;;;7.57;4.70;;;;;;;;;;5040095;28;20986;-66
2023/11/29 12:52:58;;;;;;;8.50;4.93;;;;;;;;;;5032322;28;20466;-66
2023/11/29 12:55:24;;;;;;;6.88;4.20;;;;;;;;;;5056191;28;20091;-66
2023/11/29 12:57:50;;;;;;;5.70;4.53;;;;;;;;;;5052838;28;20132;-66
2023/11/29 13:00:17;;;;;;;8.88;4.75;;;;;;;;;;5035483;28;20108;-66
2023/11/29 13:02:43;;;;;;;5.70;4.43;;;;;;;;;;5037967;28;20025;-68
2023/11/29 13:05:09;;;;;;;5.68;3.80;;;;;;;;;;5032556;28;20025;-67
2023/11/29 13:07:35;;;;;;;4.63;3.83;;;;;;;;;;5033092;28;20033;-67
2023/11/29 13:10:02;;;;;;;4.80;3.47;;;;;;;;;;5031520;28;20037;-67
2023/11/29 13:12:29;;;;;;;4.60;3.53;;;;;;;;;;5043925;28;20075;-67
2023/11/29 13:14:55;;;;;;;4.45;3.53;;;;;;;;;;5040133;28;20075;-67
2023/11/29 13:17:22;;;;;;;4.65;3.50;;;;;;;;;;5034144;28;20062;-67
2023/11/29 13:19:48;;;;;;;5.40;3.95;;;;;;;;;;5029973;28;20025;-67
2023/11/29 13:22:14;;;;;;;8.88;4.07;;;;;;;;;;5037390;28;20369;-67
2023/11/29 13:24:40;;;;;;;6.18;4.50;;;;;;;;;;5031209;28;20029;-67
2023/11/29 13:27:07;;;;;;;4.55;3.88;;;;;;;;;;5035077;28;20037;-67
2023/11/29 13:29:33;;;;;;;3.55;2.63;;;;;;;;;;5033019;28;20488;-67
2023/11/29 13:32:00;;;;;;;4.13;2.50;;;;;;;;;;5034526;28;20036;-67
2023/11/29 13:34:26;;;;;;;2.20;1.90;;;;;;;;;;5033677;28;20037;-68
2023/11/29 13:36:52;;;;;;;3.10;1.67;;;;;;;;;;5033678;28;20662;-67
2023/11/29 13:39:18;;;;;;;1.95;1.75;;;;;;;;;;5032095;28;20218;-67
2023/11/29 13:41:44;;;;;;;2.60;1.70;;;;;;;;;;5027077;28;20068;-68
2023/11/29 13:44:11;;;;;;;2.22;1.65;;;;;;;;;;5037302;28;20055;-68
2023/11/29 13:46:37;;;;;;;3.67;1.85;;;;;;;;;;5051698;28;20043;-68
2023/11/29 13:49:04;;;;;;;1.58;1.48;;;;;;;;;;5052932;28;20394;-67
2023/11/29 13:51:30;;;;;;;3.75;1.77;;;;;;;;;;5055559;28;20024;-67
2023/11/29 13:53:56;;;;;;;4.15;1.75;;;;;;;;;;5057442;28;20033;-67
2023/11/29 13:56:23;;;;;;;1.65;1.40;;;;;;;;;;5056879;28;20613;-68
2023/11/29 13:58:49;;;;;;;2.58;1.70;;;;;;;;;;5055995;28;20028;-67
2023/11/29 14:01:15;;;;;;;1.52;1.42;;;;;;;;;;5051667;28;20067;-71
2023/11/29 14:03:41;;;;;;;3.05;1.65;;;;;;;;;;5058114;28;20024;-67
2023/11/29 14:06:11;;;;;;;3.95;1.90;;;;;;;;;;5055931;28;20059;-71
2023/11/29 14:08:41;;;;;;;1.88;1.40;;;;;;;;;;5053275;28;20071;-68
2023/11/29 14:11:08;;;;;;;2.90;2.22;;;;;;;;;;5064497;28;20038;-67
2023/11/29 14:13:34;;;;;;;3.97;1.83;;;;;;;;;;5048565;28;20646;-68
2023/11/29 14:16:00;;;;;;;2.30;2.10;;;;;;;;;;5065393;28;20062;-70
2023/11/29 14:18:26;;;;;;;2.42;1.92;;;;;;;;;;5050530;28;20234;-69
2023/11/29 14:20:52;;;;;;;2.55;1.70;;;;;;;;;;5053949;28;20039;-70
2023/11/29 14:23:19;;;;;;;2.75;1.90;;;;;;;;;;5054814;28;20032;-67
2023/11/29 14:25:46;;;;;;;3.63;1.90;;;;;;;;;;5049171;28;20083;-66
2023/11/29 14:28:13;;;;;;;2.97;1.70;;;;;;;;;;5055355;28;20088;-69
2023/11/29 14:30:39;;;;;;;2.42;1.70;;;;;;;;;;5053458;28;20024;-69
2023/11/29 14:33:05;;;;;;;5.28;2.03;;;;;;;;;;5047288;28;20024;-69